createdAt,value
2019-03-09T00:01:18.422Z,49.50
2019-03-09T00:04:22.197Z,49.00
2019-03-09T00:07:26.171Z,49.90
2019-03-09T00:10:29.881Z,50.60
2019-03-09T00:13:33.589Z,51.30
2019-03-09T00:16:40.080Z,51.40
2019-03-09T00:19:43.781Z,51.70
2019-03-09T00:22:51.272Z,51.80
2019-03-09T00:26:12.026Z,51.00
2019-03-09T00:29:34.601Z,50.60
2019-03-09T00:32:38.312Z,52.00
2019-03-09T00:35:42.058Z,51.60
2019-03-09T00:38:46.257Z,51.20
2019-03-09T00:41:49.884Z,51.80
2019-03-09T00:44:53.552Z,51.70
2019-03-09T00:47:57.441Z,52.20
2019-03-09T00:51:01.772Z,50.90
2019-03-09T00:54:05.562Z,50.50
2019-03-09T00:57:09.237Z,51.60
2019-03-09T01:00:15.962Z,50.40
2019-03-09T01:03:19.965Z,51.30
2019-03-09T01:06:23.960Z,51.00
2019-03-09T01:09:27.689Z,50.50
2019-03-09T01:12:31.441Z,51.10
2019-03-09T01:15:35.141Z,51.10
2019-03-09T01:18:38.994Z,52.60
2019-03-09T01:21:42.923Z,51.80
2019-03-09T01:24:46.610Z,51.40
2019-03-09T01:27:50.278Z,51.70
2019-03-09T01:30:53.937Z,53.10
2019-03-09T01:33:57.577Z,53.10
2019-03-09T01:37:01.294Z,52.20
2019-03-09T01:40:06.462Z,52.00
2019-03-09T01:43:10.164Z,52.10
2019-03-09T01:46:13.835Z,53.20
2019-03-09T01:49:17.537Z,52.90
2019-03-09T01:52:21.209Z,53.50
2019-03-09T01:55:24.900Z,53.50
2019-03-09T01:58:28.536Z,53.90
2019-03-09T02:01:32.202Z,54.80
2019-03-09T02:04:35.861Z,55.00
2019-03-09T02:07:39.548Z,54.80
2019-03-09T02:10:43.394Z,54.70
2019-03-09T02:13:47.061Z,55.20
2019-03-09T02:16:51.061Z,55.10
2019-03-09T02:19:54.735Z,54.60
2019-03-09T02:22:58.513Z,54.80
2019-03-09T02:26:02.182Z,54.50
2019-03-09T02:29:05.880Z,54.90
2019-03-09T02:32:09.555Z,54.50
2019-03-09T02:35:14.276Z,55.00
2019-03-09T02:38:28.193Z,54.60
2019-03-09T02:41:31.945Z,54.30
2019-03-09T02:44:35.690Z,54.10
2019-03-09T02:47:39.645Z,54.60
2019-03-09T02:50:58.210Z,54.80
2019-03-09T02:54:01.901Z,54.70
2019-03-09T02:57:05.857Z,54.50
2019-03-09T03:00:12.501Z,54.00
2019-03-09T03:03:16.215Z,54.70
2019-03-09T03:06:20.239Z,54.90
2019-03-09T03:09:23.893Z,54.80
2019-03-09T03:12:28.240Z,55.00
2019-03-09T03:15:33.614Z,55.30
2019-03-09T03:18:37.277Z,55.70
2019-03-09T03:21:40.951Z,56.30
2019-03-09T03:24:44.638Z,56.20
2019-03-09T03:27:48.349Z,56.50
2019-03-09T03:30:52.002Z,57.10
2019-03-09T03:33:55.716Z,56.90
2019-03-09T03:36:59.421Z,57.50
2019-03-09T03:40:03.596Z,57.40
2019-03-09T03:43:07.379Z,56.90
2019-03-09T03:46:11.046Z,57.30
2019-03-09T03:49:15.046Z,58.10
2019-03-09T03:52:21.682Z,58.00
2019-03-09T03:55:25.546Z,57.50
2019-03-09T03:58:29.888Z,57.40
2019-03-09T04:01:33.564Z,58.20
2019-03-09T04:04:37.282Z,58.30
2019-03-09T04:07:41.375Z,59.60
2019-03-09T04:10:45.313Z,60.20
2019-03-09T04:13:49.091Z,60.30
2019-03-09T04:16:52.740Z,61.50
2019-03-09T04:19:56.417Z,61.40
2019-03-09T04:23:00.088Z,61.90
2019-03-09T04:26:03.788Z,62.00
2019-03-09T04:29:07.444Z,60.90
2019-03-09T04:32:11.213Z,61.60
2019-03-09T04:35:14.937Z,60.30
2019-03-09T04:38:18.638Z,60.40
2019-03-09T04:41:22.264Z,59.30
2019-03-09T04:44:27.234Z,59.50
2019-03-09T04:47:31.027Z,59.80
2019-03-09T04:50:34.676Z,58.50
2019-03-09T04:53:39.305Z,57.90
2019-03-09T04:56:42.997Z,58.30
2019-03-09T04:59:46.985Z,57.50
2019-03-09T05:02:50.669Z,57.00
2019-03-09T05:05:54.317Z,57.40
2019-03-09T05:09:29.208Z,57.10
2019-03-09T05:12:33.152Z,58.00
2019-03-09T05:15:36.837Z,57.50
2019-03-09T05:18:40.549Z,59.10
2019-03-09T05:21:44.293Z,59.80
2019-03-09T05:24:47.964Z,59.40
2019-03-09T05:27:51.985Z,59.60
2019-03-09T05:30:55.708Z,59.00
2019-03-09T05:33:59.351Z,60.20
2019-03-09T05:37:03.031Z,60.90
2019-03-09T05:40:07.292Z,61.40
2019-03-09T05:43:10.954Z,60.70
2019-03-09T05:46:15.162Z,61.50
2019-03-09T05:49:18.793Z,60.80
2019-03-09T05:52:50.637Z,61.50
2019-03-09T05:55:54.818Z,62.70
2019-03-09T05:58:58.518Z,61.90
2019-03-09T06:02:02.168Z,63.30
2019-03-09T06:05:22.544Z,63.30
2019-03-09T06:08:26.233Z,63.50
2019-03-09T06:11:29.933Z,64.50
2019-03-09T06:14:33.697Z,65.70
2019-03-09T06:17:37.415Z,67.10
2019-03-09T06:20:41.139Z,67.10
2019-03-09T06:23:44.815Z,67.90
2019-03-09T06:26:48.522Z,66.70
2019-03-09T06:29:52.270Z,68.50
2019-03-09T06:33:16.557Z,68.60
2019-03-09T06:36:54.268Z,70.10
2019-03-09T06:39:57.984Z,69.30
2019-03-09T06:43:01.673Z,69.30
2019-03-09T06:46:05.405Z,69.50
2019-03-09T06:49:09.100Z,69.90
2019-03-09T06:52:12.772Z,69.40
2019-03-09T06:55:16.454Z,71.40
2019-03-09T06:58:20.130Z,70.50
2019-03-09T07:01:24.345Z,71.00
2019-03-09T07:04:28.394Z,72.20
2019-03-09T07:07:32.053Z,72.20
2019-03-09T07:10:35.959Z,72.70
2019-03-09T07:13:39.641Z,72.00
2019-03-09T07:16:43.377Z,71.10
2019-03-09T07:19:47.084Z,71.40
2019-03-09T07:22:50.724Z,71.90
2019-03-09T07:25:54.436Z,71.40
2019-03-09T07:28:58.114Z,71.00
2019-03-09T07:32:01.773Z,71.80
2019-03-09T07:35:06.069Z,69.70
2019-03-09T07:38:09.710Z,70.70
2019-03-09T07:41:13.385Z,68.60
2019-03-09T07:44:17.332Z,68.60
2019-03-09T07:47:21.021Z,68.70
2019-03-09T07:50:24.697Z,66.20
2019-03-09T07:53:28.401Z,66.80
2019-03-09T07:56:32.103Z,66.30
2019-03-09T07:59:36.074Z,66.70
2019-03-09T08:02:39.761Z,65.70
2019-03-09T08:05:43.449Z,65.90
2019-03-09T08:08:47.129Z,65.20
2019-03-09T08:11:50.818Z,65.30
2019-03-09T08:14:54.515Z,64.20
2019-03-09T08:17:58.157Z,64.40
2019-03-09T08:21:02.330Z,64.60
2019-03-09T08:24:06.033Z,63.90
2019-03-09T08:27:09.833Z,63.60
2019-03-09T08:30:15.808Z,62.20
2019-03-09T08:33:19.480Z,62.40
2019-03-09T08:36:23.352Z,59.80
2019-03-09T08:39:27.112Z,59.30
2019-03-09T08:42:30.789Z,61.20
2019-03-09T08:45:34.481Z,61.00
2019-03-09T08:48:38.191Z,62.10
2019-03-09T08:51:41.995Z,63.30
2019-03-09T08:54:45.724Z,63.90
2019-03-09T08:57:49.402Z,60.80
2019-03-09T09:00:53.387Z,62.80
2019-03-09T09:03:57.198Z,62.60
2019-03-09T09:07:00.866Z,62.20
2019-03-09T09:10:04.823Z,63.00
2019-03-09T09:13:09.144Z,61.40
2019-03-09T09:16:12.832Z,60.40
2019-03-09T09:19:16.493Z,57.80
2019-03-09T09:22:20.157Z,56.60
2019-03-09T09:25:23.810Z,54.20
2019-03-09T09:28:27.573Z,53.30
2019-03-09T09:31:31.740Z,51.60
2019-03-09T09:34:35.475Z,50.30
2019-03-09T09:37:39.353Z,50.60
2019-03-09T09:40:42.988Z,47.30
2019-03-09T09:43:46.682Z,45.40
2019-03-09T09:46:50.423Z,44.40
2019-03-09T09:49:54.169Z,43.70
2019-03-09T09:52:57.897Z,40.80
2019-03-09T09:56:01.625Z,40.80
2019-03-09T09:59:05.402Z,40.20
2019-03-09T10:02:09.036Z,38.40
2019-03-09T10:05:13.249Z,38.50
2019-03-09T10:08:16.909Z,37.20
2019-03-09T10:11:20.699Z,34.90
2019-03-09T10:14:24.998Z,35.60
2019-03-09T10:17:28.786Z,36.20
2019-03-09T10:20:32.531Z,34.80
2019-03-09T10:23:36.174Z,34.10
2019-03-09T10:26:39.883Z,34.70
2019-03-09T10:29:43.902Z,33.60
2019-03-09T10:32:47.680Z,32.70
2019-03-09T10:35:51.317Z,33.40
2019-03-09T10:38:54.985Z,33.00
2019-03-09T10:41:58.661Z,33.40
2019-03-09T10:45:02.369Z,32.50
2019-03-09T10:48:06.004Z,32.10
2019-03-09T10:51:09.732Z,33.80
2019-03-09T10:54:13.525Z,33.80
2019-03-09T10:57:17.236Z,33.60
2019-03-09T11:00:23.355Z,33.10
2019-03-09T11:03:27.058Z,32.70
2019-03-09T11:06:30.714Z,33.30
2019-03-09T11:09:34.397Z,32.60
2019-03-09T11:12:38.100Z,33.50
2019-03-09T11:15:42.111Z,32.40
2019-03-09T11:18:45.816Z,33.10
2019-03-09T11:21:49.528Z,33.10
2019-03-09T11:25:03.068Z,33.30
2019-03-09T11:28:07.499Z,34.40
2019-03-09T11:31:11.171Z,34.50
2019-03-09T11:34:14.882Z,34.90
2019-03-09T11:37:18.552Z,35.00
2019-03-09T11:40:22.364Z,34.50
2019-03-09T11:43:26.326Z,34.10
2019-03-09T11:46:30.235Z,32.90
2019-03-09T11:49:34.184Z,33.50
2019-03-09T11:52:37.888Z,33.50
2019-03-09T11:55:41.547Z,32.80
2019-03-09T11:58:45.261Z,31.40
2019-03-09T12:01:49.361Z,31.50
2019-03-09T12:04:53.026Z,30.70
2019-03-09T12:07:56.969Z,31.90
2019-03-09T12:11:00.644Z,31.70
2019-03-09T12:14:04.425Z,30.30
2019-03-09T12:17:12.566Z,30.20
2019-03-09T12:20:14.334Z,29.50
2019-03-09T12:23:22.588Z,29.80
2019-03-09T12:26:26.225Z,30.50
2019-03-09T12:29:29.912Z,30.50
2019-03-09T12:32:33.541Z,30.60
2019-03-09T12:35:37.260Z,29.00
2019-03-09T12:38:40.953Z,28.90
2019-03-09T12:41:44.935Z,27.50
2019-03-09T12:44:48.636Z,27.50
2019-03-09T12:47:52.651Z,27.30
2019-03-09T12:50:56.426Z,27.30
2019-03-09T12:54:00.077Z,27.90
2019-03-09T12:57:03.967Z,27.60
2019-03-09T13:00:10.335Z,26.90
2019-03-09T13:03:14.208Z,27.50
2019-03-09T13:06:17.933Z,27.50
2019-03-09T13:09:21.676Z,28.20
2019-03-09T13:12:25.364Z,27.30
2019-03-09T13:15:29.122Z,27.90
2019-03-09T13:18:32.817Z,27.00
2019-03-09T13:21:36.518Z,27.00
2019-03-09T13:24:40.208Z,27.00
2019-03-09T13:27:44.766Z,27.00
2019-03-09T13:30:48.518Z,26.80
2019-03-09T13:33:52.234Z,27.50
2019-03-09T13:36:55.937Z,27.90
2019-03-09T13:39:59.601Z,27.90
2019-03-09T13:43:03.311Z,28.70
2019-03-09T13:46:06.969Z,28.90
2019-03-09T13:49:10.660Z,29.00
2019-03-09T13:52:14.609Z,29.20
2019-03-09T13:55:18.337Z,29.70
2019-03-09T13:58:22.039Z,29.80
2019-03-09T14:01:26.520Z,30.50
2019-03-09T14:04:30.234Z,30.70
2019-03-09T14:07:33.897Z,30.70
2019-03-09T14:10:37.854Z,30.10
2019-03-09T14:13:41.558Z,29.70
2019-03-09T14:16:45.253Z,29.50
2019-03-09T14:19:48.928Z,29.70
2019-03-09T14:22:52.668Z,30.30
2019-03-09T14:25:56.419Z,30.20
2019-03-09T14:29:00.098Z,30.90
2019-03-09T14:32:03.901Z,30.80
2019-03-09T14:35:07.742Z,31.40
2019-03-09T14:38:11.485Z,31.20
2019-03-09T14:41:16.359Z,35.50
2019-03-09T14:44:20.026Z,37.00
2019-03-09T14:47:23.726Z,38.40
2019-03-09T14:50:27.406Z,39.20
2019-03-09T14:53:31.384Z,37.30
2019-03-09T14:56:35.408Z,35.90
2019-03-09T14:59:39.140Z,36.60
2019-03-09T15:02:42.823Z,37.10
2019-03-09T15:05:46.464Z,36.90
2019-03-09T15:08:50.148Z,37.10
2019-03-09T15:11:53.844Z,36.90
2019-03-09T15:14:57.545Z,36.40
2019-03-09T15:18:01.246Z,37.40
2019-03-09T15:21:04.877Z,36.30
2019-03-09T15:24:08.576Z,37.40
2019-03-09T15:27:12.558Z,38.50
2019-03-09T15:30:16.475Z,38.50
2019-03-09T15:33:21.589Z,38.20
2019-03-09T15:36:26.089Z,38.70
2019-03-09T15:39:30.372Z,37.70
2019-03-09T15:42:34.108Z,37.80
2019-03-09T15:45:37.817Z,36.90
2019-03-09T15:48:41.561Z,36.70
2019-03-09T15:51:45.278Z,37.00
2019-03-09T15:54:48.990Z,36.70
2019-03-09T15:57:52.735Z,37.30
2019-03-09T16:00:56.780Z,38.20
2019-03-09T16:04:00.412Z,37.60
2019-03-09T16:07:06.703Z,38.10
2019-03-09T16:10:11.594Z,36.20
2019-03-09T16:13:15.294Z,36.40
2019-03-09T16:16:19.064Z,37.10
2019-03-09T16:19:23.039Z,38.20
2019-03-09T16:22:26.761Z,40.10
2019-03-09T16:25:30.728Z,44.80
2019-03-09T16:28:34.493Z,49.60
2019-03-09T16:31:38.219Z,52.50
2019-03-09T16:34:41.901Z,52.90
2019-03-09T16:37:45.576Z,54.50
2019-03-09T16:40:49.227Z,54.70
2019-03-09T16:43:53.140Z,55.30
2019-03-09T16:46:56.816Z,57.40
2019-03-09T16:50:00.482Z,57.40
2019-03-09T16:53:04.157Z,58.90
2019-03-09T16:56:07.809Z,59.30
2019-03-09T16:59:11.586Z,59.20
2019-03-09T17:02:15.293Z,59.80
2019-03-09T17:05:19.014Z,59.70
2019-03-09T17:08:22.797Z,60.30
2019-03-09T17:11:26.724Z,60.60
2019-03-09T17:14:32.852Z,60.70
2019-03-09T17:17:36.694Z,60.70
2019-03-09T17:20:40.360Z,60.80
2019-03-09T17:23:44.097Z,60.40
2019-03-09T17:26:48.060Z,61.40
2019-03-09T17:29:51.763Z,62.00
2019-03-09T17:32:55.460Z,62.60
2019-03-09T17:35:59.449Z,61.70
2019-03-09T17:39:04.740Z,62.40
2019-03-09T17:42:08.679Z,62.70
2019-03-09T17:45:16.920Z,63.20
2019-03-09T17:48:20.622Z,64.00
2019-03-09T17:51:24.282Z,65.10
2019-03-09T17:54:27.971Z,66.30
2019-03-09T17:57:31.903Z,68.80
2019-03-09T18:00:42.484Z,67.90
2019-03-09T18:03:42.969Z,69.70
2019-03-09T18:06:46.706Z,71.40
2019-03-09T18:09:50.412Z,71.60
2019-03-09T18:12:54.080Z,71.80
2019-03-09T18:15:58.046Z,68.80
2019-03-09T18:19:01.965Z,68.50
2019-03-09T18:22:05.699Z,68.80
2019-03-09T18:25:09.569Z,70.50
2019-03-09T18:28:13.328Z,69.70
2019-03-09T18:31:17.029Z,71.10
2019-03-09T18:34:20.697Z,71.80
2019-03-09T18:37:24.418Z,71.60
2019-03-09T18:40:28.118Z,72.20
2019-03-09T18:43:31.862Z,74.10
2019-03-09T18:46:36.765Z,73.10
2019-03-09T18:49:40.673Z,74.40
2019-03-09T18:52:44.381Z,74.60
2019-03-09T18:55:48.063Z,74.60
2019-03-09T18:58:51.764Z,74.90
2019-03-09T19:01:55.492Z,73.90
2019-03-09T19:04:59.116Z,73.30
2019-03-09T19:08:02.799Z,73.40
2019-03-09T19:11:06.482Z,73.70
2019-03-09T19:14:10.227Z,73.30
2019-03-09T19:17:13.989Z,73.20
2019-03-09T19:20:17.750Z,73.60
2019-03-09T19:23:21.504Z,73.10
2019-03-09T19:26:25.241Z,72.20
2019-03-09T19:29:28.949Z,71.70
2019-03-09T19:32:32.830Z,71.70
2019-03-09T19:35:36.546Z,71.00
2019-03-09T19:38:40.192Z,71.40
2019-03-09T19:41:44.172Z,70.60
2019-03-09T19:44:48.203Z,69.50
2019-03-09T19:47:53.671Z,70.30
2019-03-09T19:50:57.333Z,70.90
2019-03-09T19:54:01.082Z,71.20
2019-03-09T19:57:04.830Z,69.00
2019-03-09T20:00:09.621Z,69.40
2019-03-09T20:03:13.369Z,69.50
2019-03-09T20:06:17.253Z,67.90
2019-03-09T20:09:20.971Z,68.60
2019-03-09T20:12:24.710Z,67.70
2019-03-09T20:15:28.629Z,68.80
2019-03-09T20:18:32.360Z,69.20
2019-03-09T20:21:36.000Z,69.20
2019-03-09T20:24:39.908Z,69.20
2019-03-09T20:27:43.824Z,70.50
2019-03-09T20:30:47.487Z,69.40
2019-03-09T20:33:51.223Z,70.30
2019-03-09T20:36:55.328Z,68.80
2019-03-09T20:39:59.038Z,69.10
2019-03-09T20:43:02.775Z,66.00
2019-03-09T20:46:06.472Z,64.50
2019-03-09T20:49:10.333Z,65.20
2019-03-09T20:52:14.198Z,61.70
2019-03-09T20:55:18.145Z,62.60
2019-03-09T20:58:21.799Z,61.00
2019-03-09T21:01:25.594Z,60.50
2019-03-09T21:04:29.651Z,61.10
2019-03-09T21:07:33.357Z,60.80
2019-03-09T21:10:37.410Z,59.60
2019-03-09T21:13:41.098Z,58.50
2019-03-09T21:16:44.925Z,55.10
2019-03-09T21:19:48.698Z,54.60
2019-03-09T21:22:52.393Z,55.70
2019-03-09T21:25:56.190Z,56.20
2019-03-09T21:28:59.833Z,55.70
2019-03-09T21:32:03.529Z,57.30
2019-03-09T21:35:07.194Z,54.50
2019-03-09T21:38:11.147Z,54.70
2019-03-09T21:41:14.788Z,53.70
2019-03-09T21:44:19.429Z,52.90
2019-03-09T21:47:23.093Z,50.80
2019-03-09T21:50:26.813Z,50.60
2019-03-09T21:53:30.500Z,50.50
2019-03-09T21:56:34.164Z,50.10
2019-03-09T21:59:37.877Z,49.60
2019-03-09T22:02:41.568Z,50.30
2019-03-09T22:05:45.245Z,48.60
2019-03-09T22:08:48.968Z,50.00
2019-03-09T22:11:52.608Z,49.00
2019-03-09T22:14:56.324Z,49.10
2019-03-09T22:18:00.018Z,49.30
2019-03-09T22:21:03.672Z,50.10
2019-03-09T22:24:07.391Z,50.30
2019-03-09T22:27:11.066Z,49.80
2019-03-09T22:30:14.870Z,48.30
2019-03-09T22:33:18.577Z,49.10
2019-03-09T22:36:22.610Z,47.80
2019-03-09T22:39:27.421Z,48.20
2019-03-09T22:42:31.060Z,48.20
2019-03-09T22:45:35.076Z,48.50
2019-03-09T22:48:38.797Z,47.60
2019-03-09T22:51:42.478Z,48.30
2019-03-09T22:54:46.625Z,48.10
2019-03-09T22:57:50.317Z,48.70
2019-03-09T23:00:54.313Z,49.30
2019-03-09T23:03:58.043Z,48.70
2019-03-09T23:07:01.675Z,49.10
2019-03-09T23:10:06.813Z,49.50
2019-03-09T23:13:10.485Z,50.00
2019-03-09T23:16:14.199Z,49.30
2019-03-09T23:19:17.828Z,49.10
2019-03-09T23:22:21.745Z,49.80
2019-03-09T23:25:25.462Z,49.40
2019-03-09T23:28:46.457Z,48.90
2019-03-09T23:31:50.326Z,48.50
2019-03-09T23:34:53.951Z,48.60
2019-03-09T23:37:57.753Z,48.30
2019-03-09T23:41:01.409Z,48.30
2019-03-09T23:44:05.309Z,48.50
2019-03-09T23:47:09.100Z,47.70
2019-03-09T23:50:14.053Z,47.80
2019-03-09T23:53:18.828Z,48.70
2019-03-09T23:56:22.468Z,47.40
2019-03-09T23:59:26.369Z,47.30
